Carrier Princess — CZ3582 — position and weather

sailwx.info

Track history (hours):
 
Tides and Currents Weather Stations Pressure Air Temp Water Temp Dewpoint Dewpoint Depression Visibility Wind Speed Wind Dir Waves Ship Positions

Carrier Princess

Last reported at 2014-Oct-23 11:33 UTC. Time now 2014-Oct-23 12:21 UTC.
Position N 48°45' W 123°21'.

Length 112 m; draft 3 m.

Type: Cargo ship. MMSI: 316003656.

Date/timePositionNaut miles runAvg speedWind from/ knotsBaromVisibWave heightAir tempDewpointWater temp
2014-Oct-23 11:33N 48°45' W 123°21'1111.1
2014-Oct-23 10:33N 48°56' W 123°19'1211.9
2014-Oct-23 09:34N 49°08' W 123°15'8 8.2
2014-Oct-23 08:33N 49°09' W 123°02'0 0.0
2014-Oct-23 07:34N 49°09' W 123°02'8 8.1
2014-Oct-23 06:34N 49°08' W 123°14'1110.9
2014-Oct-23 05:33N 49°09' W 123°31'1312.9
2014-Oct-23 04:34N 49°13' W 123°50'5 4.7
2014-Oct-23 03:34N 49°10' W 123°56'1 0.5
2014-Oct-23 02:33N 49°10' W 123°55'1010.2
2014-Oct-23 01:34N 49°12' W 123°40'1212.2
2014-Oct-23 00:33N 49°06' W 123°23'1212.3
2014-Oct-22 23:33N 49°07' W 123°04'2 1.9
2014-Oct-22 22:33N 49°09' W 123°02'5 5.4
2014-Oct-22 21:33N 49°07' W 123°10'9 8.6
2014-Oct-22 20:33N 49°00' W 123°18'1211.9
2014-Oct-22 19:33N 48°48' W 123°21'7 7.4
2014-Oct-22 18:33N 48°41' W 123°24'1 1.0
2014-Oct-22 17:33N 48°42' W 123°23'1414.2
2014-Oct-22 16:33N 48°56' W 123°19'1312.7
2014-Oct-22 15:33N 49°07' W 123°12'6 6.5
2014-Oct-22 14:33N 49°09' W 123°02'0 0.0
2014-Oct-22 13:33N 49°09' W 123°02'0 0.0
2014-Oct-22 12:33N 49°09' W 123°02'0 0.0
2014-Oct-22 11:33N 49°09' W 123°02'0 0.0
2014-Oct-22 10:33N 49°09' W 123°02'0 0.0
2014-Oct-22 09:33N 49°09' W 123°02'0 0.0
2014-Oct-22 08:33N 49°09' W 123°02'0 0.0
2014-Oct-22 07:33N 49°09' W 123°02'6 6.1
2014-Oct-22 06:33N 49°07' W 123°11'1212.0
2014-Oct-22 05:34N 49°08' W 123°29'1414.4
2014-Oct-22 04:33N 49°13' W 123°50'5 4.7
2014-Oct-22 03:33N 49°10' W 123°56'0 0.1
2014-Oct-22 02:33N 49°10' W 123°56'1110.9
2014-Oct-22 01:33N 49°12' W 123°39'1313.3
2014-Oct-22 00:33N 49°06' W 123°20'1212.1
2014-Oct-21 23:33N 49°09' W 123°02'0 0.0
2014-Oct-21 22:33N 49°09' W 123°02'0 0.0
2014-Oct-21 21:33N 49°09' W 123°02'7 6.6
2014-Oct-21 20:33N 49°07' W 123°12'1212.3
2014-Oct-21 19:33N 48°56' W 123°18'1514.5
2014-Oct-21 18:33N 48°42' W 123°24'0 0.4
2014-Oct-21 17:33N 48°41' W 123°24'0 0.0
2014-Oct-21 16:31N 48°41' W 123°24'0 0.0
2014-Oct-21 15:33N 48°41' W 123°24'0 0.0
2014-Oct-21 14:33N 48°41' W 123°24'0 0.0
2014-Oct-21 13:33N 48°41' W 123°24'0 0.0
2014-Oct-21 12:32N 48°41' W 123°24'4 3.8
2014-Oct-21 11:33N 48°44' W 123°21'1111.3
2014-Oct-21 10:33N 48°55' W 123°18'1312.8
2014-Oct-21 09:33N 49°08' W 123°13'7 7.4
2014-Oct-21 08:34N 49°09' W 123°02'0 0.0
2014-Oct-21 07:34N 49°09' W 123°02'7 6.7
2014-Oct-21 06:34N 49°08' W 123°12'1111.0
2014-Oct-21 05:33N 49°08' W 123°29'1313.2
2014-Oct-21 04:33N 49°13' W 123°48'6 5.7
2014-Oct-21 03:33N 49°10' W 123°56'0 0.0
2014-Oct-21 02:33N 49°10' W 123°56'10 9.9
2014-Oct-21 01:33N 49°12' W 123°41'1312.6
2014-Oct-21 00:33N 49°07' W 123°23'1313.3
2014-Oct-20 23:33N 49°08' W 123°03'0 0.5
2014-Oct-20 22:33N 49°09' W 123°02'0 0.0
2014-Oct-20 21:33N 49°09' W 123°02'0 0.0
2014-Oct-20 20:33N 49°09' W 123°02'0 0.1
2014-Oct-20 19:33N 49°09' W 123°02'0 0.0
2014-Oct-20 18:33N 49°09' W 123°02'0 0.0
2014-Oct-20 17:33N 49°09' W 123°02'0 0.0
2014-Oct-20 16:33N 49°09' W 123°02'0 0.0
2014-Oct-20 15:33N 49°09' W 123°02'0 0.0
2014-Oct-20 14:33N 49°09' W 123°02'0 0.0
2014-Oct-20 13:33N 49°09' W 123°02'0 0.0
2014-Oct-20 12:33N 49°09' W 123°02'0 0.0
2014-Oct-20 11:33N 49°09' W 123°02'0 0.0
2014-Oct-20 10:33N 49°09' W 123°02'0 0.0
2014-Oct-20 09:33N 49°09' W 123°02'0 0.0
2014-Oct-20 08:33N 49°09' W 123°02'0 0.0
2014-Oct-20 07:33N 49°09' W 123°02'0 0.0
2014-Oct-20 06:33N 49°09' W 123°02'0 0.0
2014-Oct-20 05:33N 49°09' W 123°02'0 0.0
2014-Oct-20 04:33N 49°09' W 123°02'0 0.0
2014-Oct-20 03:33N 49°09' W 123°02'0 0.0
2014-Oct-20 02:33N 49°09' W 123°02'0 0.0
2014-Oct-20 01:33N 49°09' W 123°02'0 0.0
2014-Oct-20 00:33N 49°09' W 123°02'0 0.0
2014-Oct-19 23:33N 49°09' W 123°02'0 0.0
2014-Oct-19 22:33N 49°09' W 123°02'0 0.0
2014-Oct-19 21:33N 49°09' W 123°02'0 0.0
2014-Oct-19 20:33N 49°09' W 123°02'0 0.0
2014-Oct-19 19:33N 49°09' W 123°02'0 0.0
2014-Oct-19 18:33N 49°09' W 123°02'0 0.0
2014-Oct-19 17:33N 49°09' W 123°02'0 0.0
2014-Oct-19 16:33N 49°09' W 123°02'0 0.0
2014-Oct-19 15:33N 49°09' W 123°02'1 1.4
2014-Oct-19 14:33N 49°08' W 123°04'10 9.9
2014-Oct-19 13:33N 49°06' W 123°19'1110.9
2014-Oct-19 12:33N 49°10' W 123°34'1110.5
2014-Oct-19 11:33N 49°13' W 123°50'5 4.9
2014-Oct-19 10:33N 49°10' W 123°56'0 0.0
2014-Oct-19 09:31N 49°10' W 123°56'2 1.6
2014-Oct-19 08:33N 49°11' W 123°54'8 8.1
2014-Oct-19 07:33N 49°12' W 123°42'10 9.5
2014-Oct-19 06:33N 49°08' W 123°29'1010.5
2014-Oct-19 05:34N 49°08' W 123°13'7 7.0
2014-Oct-19 04:34N 49°09' W 123°02'0 0.0
2014-Oct-19 03:33N 49°09' W 123°02'0 0.0
2014-Oct-19 02:34N 49°09' W 123°02'0 0.0
2014-Oct-19 01:33N 49°09' W 123°02'0 0.0
2014-Oct-19 00:33N 49°09' W 123°02'0 0.0
2014-Oct-18 23:33N 49°09' W 123°02'0 0.0
2014-Oct-18 22:33N 49°09' W 123°02'2 1.8
2014-Oct-18 21:33N 49°08' W 123°04'1312.7
2014-Oct-18 20:33N 49°07' W 123°24'1414.3
2014-Oct-18 19:33N 49°12' W 123°44'8 7.3
2014-Oct-18 18:28N 49°10' W 123°56'0 0.0
2014-Oct-18 17:32N 49°10' W 123°56'0 0.0
2014-Oct-18 16:33N 49°10' W 123°56'0 0.0
2014-Oct-18 15:33N 49°10' W 123°56'0 0.0
2014-Oct-18 14:25N 49°10' W 123°56'0 0.0
2014-Oct-18 13:22N 49°10' W 123°56'0 0.0
2014-Oct-18 12:29N 49°10' W 123°56'2 2.7
2014-Oct-18 11:33N 49°12' W 123°53'1413.7
2014-Oct-18 10:33N 49°10' W 123°32'1312.6
2014-Oct-18 09:33N 49°08' W 123°13'7 7.5
2014-Oct-18 08:33N 49°09' W 123°02'0 0.0
2014-Oct-18 07:33N 49°09' W 123°02'6 6.3
2014-Oct-18 06:33N 49°07' W 123°11'1212.1
2014-Oct-18 05:33N 49°10' W 123°29'1414.3
2014-Oct-18 04:33N 49°13' W 123°51'4 4.4
2014-Oct-18 03:33N 49°10' W 123°56'0 0.1
2014-Oct-18 02:33N 49°10' W 123°56'1010.0
2014-Oct-18 01:33N 49°12' W 123°41'1514.7
2014-Oct-18 00:34N 49°06' W 123°20'1211.6
2014-Oct-17 23:33N 49°09' W 123°02'0 0.2
2014-Oct-17 22:34N 49°09' W 123°02'4 4.3
2014-Oct-17 21:33N 49°06' W 123°08'9 9.2
2014-Oct-17 20:33N 49°01' W 123°20'1212.0
2014-Oct-17 19:34N 48°49' W 123°20'8 8.3
2014-Oct-17 18:33N 48°41' W 123°24'0 0.0
2014-Oct-17 17:33N 48°41' W 123°24'0 0.0
2014-Oct-17 16:33N 48°41' W 123°24'0 0.0
2014-Oct-17 15:33N 48°41' W 123°24'0 0.0
2014-Oct-17 14:33N 48°41' W 123°24'0 0.0
2014-Oct-17 13:33N 48°41' W 123°24'0 0.0
2014-Oct-17 12:33N 48°41' W 123°24'1 1.4
2014-Oct-17 11:33N 48°43' W 123°24'1313.3
2014-Oct-17 10:33N 48°55' W 123°18'1312.8
2014-Oct-17 09:34N 49°08' W 123°13'7 7.0
2014-Oct-17 08:33N 49°09' W 123°02'0 0.0
2014-Oct-17 07:33N 49°09' W 123°02'7 6.7
2014-Oct-17 06:33N 49°07' W 123°12'1211.8
2014-Oct-17 05:33N 49°09' W 123°30'1413.6
2014-Oct-17 04:33N 49°13' W 123°50'5 4.7
2014-Oct-17 03:33N 49°10' W 123°56'0 0.3
2014-Oct-17 02:33N 49°10' W 123°55'1111.2
2014-Oct-17 01:33N 49°11' W 123°38'1414.3
2014-Oct-17 00:34N 49°06' W 123°18'1110.6
2014-Oct-16 23:34N 49°09' W 123°02'0 0.0
2014-Oct-16 22:34N 49°09' W 123°02'5 4.7
2014-Oct-16 21:34N 49°06' W 123°09'9 9.4
2014-Oct-16 20:33N 49°00' W 123°19'1211.8
2014-Oct-16 19:32N 48°48' W 123°20'8 7.6
2014-Oct-16 18:33N 48°41' W 123°24'0 0.0
2014-Oct-16 17:33N 48°41' W 123°24'0 0.0
2014-Oct-16 16:32N 48°41' W 123°24'0 0.0
2014-Oct-16 15:33N 48°41' W 123°24'0 0.0
2014-Oct-16 14:33N 48°41' W 123°24'0 0.0
2014-Oct-16 13:32N 48°41' W 123°24'0 0.0
2014-Oct-16 12:33N 48°41' W 123°24'3 3.4
2014-Oct-16 11:33N 48°44' W 123°21'1313.5
2014-Oct-16 10:34N 48°57' W 123°19'1111.3
2014-Oct-16 09:34N 49°07' W 123°12'6 6.3
2014-Oct-16 08:33N 49°09' W 123°02'0 0.0
2014-Oct-16 07:33N 49°09' W 123°02'6 6.3
2014-Oct-16 06:33N 49°07' W 123°12'1212.3
2014-Oct-16 05:33N 49°09' W 123°30'1413.6
2014-Oct-16 04:33N 49°13' W 123°50'4 2.2
2014-Oct-16 02:33N 49°10' W 123°55'1111.3
2014-Oct-16 01:34N 49°11' W 123°38'1413.6
2014-Oct-16 00:34N 49°06' W 123°19'1111.2
2014-Oct-15 23:33N 49°09' W 123°02'0 0.2
2014-Oct-15 22:33N 49°09' W 123°02'4 3.8
2014-Oct-15 21:33N 49°07' W 123°07'9 9.5
2014-Oct-15 20:34N 49°02' W 123°20'1211.8
2014-Oct-15 19:33N 48°50' W 123°21'9 9.5
2014-Oct-15 18:33N 48°41' W 123°24'0 0.0
2014-Oct-15 17:33N 48°41' W 123°24'0 0.0
2014-Oct-15 16:34N 48°41' W 123°24'0 0.0
2014-Oct-15 15:34N 48°41' W 123°24'0 0.0
2014-Oct-15 14:33N 48°41' W 123°24'0 0.0
2014-Oct-15 13:33N 48°41' W 123°24'0 0.0
2014-Oct-15 12:32N 48°41' W 123°24'2 2.5
2014-Oct-15 11:34N 48°43' W 123°21'1413.6
2014-Oct-15 10:33N 48°56' W 123°19'1212.1
2014-Oct-15 09:33N 49°07' W 123°12'7 6.6
2014-Oct-15 08:33N 49°09' W 123°02'0 0.0
2014-Oct-15 07:33N 49°09' W 123°02'7 6.6
2014-Oct-15 06:34N 49°07' W 123°12'1313.3
2014-Oct-15 05:34N 49°09' W 123°32'1414.2
2014-Oct-15 04:33N 49°11' W 123°54'1 1.4
2014-Oct-15 03:33N 49°10' W 123°56'0 0.1
2014-Oct-15 02:33N 49°10' W 123°56'1010.3
2014-Oct-15 01:33N 49°12' W 123°40'1414.0
2014-Oct-15 00:33N 49°06' W 123°21'1212.0
2014-Oct-14 23:33N 49°09' W 123°02'0 0.2
2014-Oct-14 22:33N 49°09' W 123°02'0 0.1
2014-Oct-14 21:33N 49°09' W 123°02'0 0.0
2014-Oct-14 20:33N 49°09' W 123°02'0 0.0
2014-Oct-14 19:33N 49°09' W 123°02'0 0.0
2014-Oct-14 18:33N 49°09' W 123°02'0 0.0
2014-Oct-14 17:33N 49°09' W 123°02'0 0.0
2014-Oct-14 16:33N 49°09' W 123°02'0 0.0
2014-Oct-14 15:33N 49°09' W 123°02'0 0.0
2014-Oct-14 14:33N 49°09' W 123°02'0 0.0
2014-Oct-14 13:33N 49°09' W 123°02'0 0.0
2014-Oct-14 12:33N 49°09' W 123°02'0 0.0
2014-Oct-14 11:33N 49°09' W 123°02'0 0.0
2014-Oct-14 10:33N 49°09' W 123°02'0 0.0
2014-Oct-14 09:33N 49°09' W 123°02'0 0.0
2014-Oct-14 08:33N 49°09' W 123°02'0 0.0
2014-Oct-14 07:33N 49°09' W 123°02'0 0.0
2014-Oct-14 06:33N 49°09' W 123°02'0 0.0
2014-Oct-14 05:33N 49°09' W 123°02'0 0.0
2014-Oct-14 04:33N 49°09' W 123°02'0 0.0
2014-Oct-14 03:33N 49°09' W 123°02'0 0.0
2014-Oct-14 02:33N 49°09' W 123°02'0 0.0
2014-Oct-14 01:33N 49°09' W 123°02'0 0.0
2014-Oct-14 00:33N 49°09' W 123°02'0 0.0
2014-Oct-13 23:33N 49°09' W 123°02'0 0.0
2014-Oct-13 22:33N 49°09' W 123°02'0 0.0
2014-Oct-13 21:33N 49°09' W 123°02'0 0.0
2014-Oct-13 20:33N 49°09' W 123°02'0 0.0
2014-Oct-13 19:33N 49°09' W 123°02'0 0.0
2014-Oct-13 18:33N 49°09' W 123°02'0 0.0
2014-Oct-13 17:33N 49°09' W 123°02'0 0.0
2014-Oct-13 16:33N 49°09' W 123°02'0 0.0
2014-Oct-13 15:33N 49°09' W 123°02'0 0.0
2014-Oct-13 14:33N 49°09' W 123°02'0 0.0
2014-Oct-13 13:33N 49°09' W 123°02'0 0.0
2014-Oct-13 12:33N 49°09' W 123°02'  
Track history (hours):
 
Tides and Currents Weather Stations Pressure Air Temp Water Temp Dewpoint Dewpoint Depression Visibility Wind Speed Wind Dir Waves Ship Positions

Carrier Princess

Last reported at 2014-Oct-23 11:33 UTC. Time now 2014-Oct-23 12:21 UTC.
Position N 48°45' W 123°21'.

Length 112 m; draft 3 m.

Type: Cargo ship. MMSI: 316003656.

Date/timePositionNaut miles runAvg speedWind from/ knotsBaromVisibWave heightAir tempDewpointWater temp
2014-Oct-23 11:33N 48°45' W 123°21'1111.1
2014-Oct-23 10:33N 48°56' W 123°19'1211.9
2014-Oct-23 09:34N 49°08' W 123°15'8 8.2
2014-Oct-23 08:33N 49°09' W 123°02'0 0.0
2014-Oct-23 07:34N 49°09' W 123°02'8 8.1
2014-Oct-23 06:34N 49°08' W 123°14'1110.9
2014-Oct-23 05:33N 49°09' W 123°31'1312.9
2014-Oct-23 04:34N 49°13' W 123°50'5 4.7
2014-Oct-23 03:34N 49°10' W 123°56'1 0.5
2014-Oct-23 02:33N 49°10' W 123°55'1010.2
2014-Oct-23 01:34N 49°12' W 123°40'1212.2
2014-Oct-23 00:33N 49°06' W 123°23'1212.3
2014-Oct-22 23:33N 49°07' W 123°04'2 1.9
2014-Oct-22 22:33N 49°09' W 123°02'5 5.4
2014-Oct-22 21:33N 49°07' W 123°10'9 8.6
2014-Oct-22 20:33N 49°00' W 123°18'1211.9
2014-Oct-22 19:33N 48°48' W 123°21'7 7.4
2014-Oct-22 18:33N 48°41' W 123°24'1 1.0
2014-Oct-22 17:33N 48°42' W 123°23'1414.2
2014-Oct-22 16:33N 48°56' W 123°19'1312.7
2014-Oct-22 15:33N 49°07' W 123°12'6 6.5
2014-Oct-22 14:33N 49°09' W 123°02'0 0.0
2014-Oct-22 13:33N 49°09' W 123°02'0 0.0
2014-Oct-22 12:33N 49°09' W 123°02'0 0.0
2014-Oct-22 11:33N 49°09' W 123°02'0 0.0
2014-Oct-22 10:33N 49°09' W 123°02'0 0.0
2014-Oct-22 09:33N 49°09' W 123°02'0 0.0
2014-Oct-22 08:33N 49°09' W 123°02'0 0.0
2014-Oct-22 07:33N 49°09' W 123°02'6 6.1
2014-Oct-22 06:33N 49°07' W 123°11'1212.0
2014-Oct-22 05:34N 49°08' W 123°29'1414.4
2014-Oct-22 04:33N 49°13' W 123°50'5 4.7
2014-Oct-22 03:33N 49°10' W 123°56'0 0.1
2014-Oct-22 02:33N 49°10' W 123°56'1110.9
2014-Oct-22 01:33N 49°12' W 123°39'1313.3
2014-Oct-22 00:33N 49°06' W 123°20'1212.1
2014-Oct-21 23:33N 49°09' W 123°02'0 0.0
2014-Oct-21 22:33N 49°09' W 123°02'0 0.0
2014-Oct-21 21:33N 49°09' W 123°02'7 6.6
2014-Oct-21 20:33N 49°07' W 123°12'1212.3
2014-Oct-21 19:33N 48°56' W 123°18'1514.5
2014-Oct-21 18:33N 48°42' W 123°24'0 0.4
2014-Oct-21 17:33N 48°41' W 123°24'0 0.0
2014-Oct-21 16:31N 48°41' W 123°24'0 0.0
2014-Oct-21 15:33N 48°41' W 123°24'0 0.0
2014-Oct-21 14:33N 48°41' W 123°24'0 0.0
2014-Oct-21 13:33N 48°41' W 123°24'0 0.0
2014-Oct-21 12:32N 48°41' W 123°24'4 3.8
2014-Oct-21 11:33N 48°44' W 123°21'1111.3
2014-Oct-21 10:33N 48°55' W 123°18'1312.8
2014-Oct-21 09:33N 49°08' W 123°13'7 7.4
2014-Oct-21 08:34N 49°09' W 123°02'0 0.0
2014-Oct-21 07:34N 49°09' W 123°02'7 6.7
2014-Oct-21 06:34N 49°08' W 123°12'1111.0
2014-Oct-21 05:33N 49°08' W 123°29'1313.2
2014-Oct-21 04:33N 49°13' W 123°48'6 5.7
2014-Oct-21 03:33N 49°10' W 123°56'0 0.0
2014-Oct-21 02:33N 49°10' W 123°56'10 9.9
2014-Oct-21 01:33N 49°12' W 123°41'1312.6
2014-Oct-21 00:33N 49°07' W 123°23'1313.3
2014-Oct-20 23:33N 49°08' W 123°03'0 0.5
2014-Oct-20 22:33N 49°09' W 123°02'0 0.0
2014-Oct-20 21:33N 49°09' W 123°02'0 0.0
2014-Oct-20 20:33N 49°09' W 123°02'0 0.1
2014-Oct-20 19:33N 49°09' W 123°02'0 0.0
2014-Oct-20 18:33N 49°09' W 123°02'0 0.0
2014-Oct-20 17:33N 49°09' W 123°02'0 0.0
2014-Oct-20 16:33N 49°09' W 123°02'0 0.0
2014-Oct-20 15:33N 49°09' W 123°02'0 0.0
2014-Oct-20 14:33N 49°09' W 123°02'0 0.0
2014-Oct-20 13:33N 49°09' W 123°02'0 0.0
2014-Oct-20 12:33N 49°09' W 123°02'0 0.0
2014-Oct-20 11:33N 49°09' W 123°02'0 0.0
2014-Oct-20 10:33N 49°09' W 123°02'0 0.0
2014-Oct-20 09:33N 49°09' W 123°02'0 0.0
2014-Oct-20 08:33N 49°09' W 123°02'0 0.0
2014-Oct-20 07:33N 49°09' W 123°02'0 0.0
2014-Oct-20 06:33N 49°09' W 123°02'0 0.0
2014-Oct-20 05:33N 49°09' W 123°02'0 0.0
2014-Oct-20 04:33N 49°09' W 123°02'0 0.0
2014-Oct-20 03:33N 49°09' W 123°02'0 0.0
2014-Oct-20 02:33N 49°09' W 123°02'0 0.0
2014-Oct-20 01:33N 49°09' W 123°02'0 0.0
2014-Oct-20 00:33N 49°09' W 123°02'0 0.0
2014-Oct-19 23:33N 49°09' W 123°02'0 0.0
2014-Oct-19 22:33N 49°09' W 123°02'0 0.0
2014-Oct-19 21:33N 49°09' W 123°02'0 0.0
2014-Oct-19 20:33N 49°09' W 123°02'0 0.0
2014-Oct-19 19:33N 49°09' W 123°02'0 0.0
2014-Oct-19 18:33N 49°09' W 123°02'0 0.0
2014-Oct-19 17:33N 49°09' W 123°02'0 0.0
2014-Oct-19 16:33N 49°09' W 123°02'0 0.0
2014-Oct-19 15:33N 49°09' W 123°02'1 1.4
2014-Oct-19 14:33N 49°08' W 123°04'10 9.9
2014-Oct-19 13:33N 49°06' W 123°19'1110.9
2014-Oct-19 12:33N 49°10' W 123°34'1110.5
2014-Oct-19 11:33N 49°13' W 123°50'5 4.9
2014-Oct-19 10:33N 49°10' W 123°56'0 0.0
2014-Oct-19 09:31N 49°10' W 123°56'2 1.6
2014-Oct-19 08:33N 49°11' W 123°54'8 8.1
2014-Oct-19 07:33N 49°12' W 123°42'10 9.5
2014-Oct-19 06:33N 49°08' W 123°29'1010.5
2014-Oct-19 05:34N 49°08' W 123°13'7 7.0
2014-Oct-19 04:34N 49°09' W 123°02'0 0.0
2014-Oct-19 03:33N 49°09' W 123°02'0 0.0
2014-Oct-19 02:34N 49°09' W 123°02'0 0.0
2014-Oct-19 01:33N 49°09' W 123°02'0 0.0
2014-Oct-19 00:33N 49°09' W 123°02'0 0.0
2014-Oct-18 23:33N 49°09' W 123°02'0 0.0
2014-Oct-18 22:33N 49°09' W 123°02'2 1.8
2014-Oct-18 21:33N 49°08' W 123°04'1312.7
2014-Oct-18 20:33N 49°07' W 123°24'1414.3
2014-Oct-18 19:33N 49°12' W 123°44'8 7.3
2014-Oct-18 18:28N 49°10' W 123°56'0 0.0
2014-Oct-18 17:32N 49°10' W 123°56'0 0.0
2014-Oct-18 16:33N 49°10' W 123°56'0 0.0
2014-Oct-18 15:33N 49°10' W 123°56'0 0.0
2014-Oct-18 14:25N 49°10' W 123°56'0 0.0
2014-Oct-18 13:22N 49°10' W 123°56'0 0.0
2014-Oct-18 12:29N 49°10' W 123°56'2 2.7
2014-Oct-18 11:33N 49°12' W 123°53'1413.7
2014-Oct-18 10:33N 49°10' W 123°32'1312.6
2014-Oct-18 09:33N 49°08' W 123°13'7 7.5
2014-Oct-18 08:33N 49°09' W 123°02'0 0.0
2014-Oct-18 07:33N 49°09' W 123°02'6 6.3
2014-Oct-18 06:33N 49°07' W 123°11'1212.1
2014-Oct-18 05:33N 49°10' W 123°29'1414.3
2014-Oct-18 04:33N 49°13' W 123°51'4 4.4
2014-Oct-18 03:33N 49°10' W 123°56'0 0.1
2014-Oct-18 02:33N 49°10' W 123°56'1010.0
2014-Oct-18 01:33N 49°12' W 123°41'1514.7
2014-Oct-18 00:34N 49°06' W 123°20'1211.6
2014-Oct-17 23:33N 49°09' W 123°02'0 0.2
2014-Oct-17 22:34N 49°09' W 123°02'4 4.3
2014-Oct-17 21:33N 49°06' W 123°08'9 9.2
2014-Oct-17 20:33N 49°01' W 123°20'1212.0
2014-Oct-17 19:34N 48°49' W 123°20'8 8.3
2014-Oct-17 18:33N 48°41' W 123°24'0 0.0
2014-Oct-17 17:33N 48°41' W 123°24'0 0.0
2014-Oct-17 16:33N 48°41' W 123°24'0 0.0
2014-Oct-17 15:33N 48°41' W 123°24'0 0.0
2014-Oct-17 14:33N 48°41' W 123°24'0 0.0
2014-Oct-17 13:33N 48°41' W 123°24'0 0.0
2014-Oct-17 12:33N 48°41' W 123°24'1 1.4
2014-Oct-17 11:33N 48°43' W 123°24'1313.3
2014-Oct-17 10:33N 48°55' W 123°18'1312.8
2014-Oct-17 09:34N 49°08' W 123°13'7 7.0
2014-Oct-17 08:33N 49°09' W 123°02'0 0.0
2014-Oct-17 07:33N 49°09' W 123°02'7 6.7
2014-Oct-17 06:33N 49°07' W 123°12'1211.8
2014-Oct-17 05:33N 49°09' W 123°30'1413.6
2014-Oct-17 04:33N 49°13' W 123°50'5 4.7
2014-Oct-17 03:33N 49°10' W 123°56'0 0.3
2014-Oct-17 02:33N 49°10' W 123°55'1111.2
2014-Oct-17 01:33N 49°11' W 123°38'1414.3
2014-Oct-17 00:34N 49°06' W 123°18'1110.6
2014-Oct-16 23:34N 49°09' W 123°02'0 0.0
2014-Oct-16 22:34N 49°09' W 123°02'5 4.7
2014-Oct-16 21:34N 49°06' W 123°09'9 9.4
2014-Oct-16 20:33N 49°00' W 123°19'1211.8
2014-Oct-16 19:32N 48°48' W 123°20'8 7.6
2014-Oct-16 18:33N 48°41' W 123°24'0 0.0
2014-Oct-16 17:33N 48°41' W 123°24'0 0.0
2014-Oct-16 16:32N 48°41' W 123°24'0 0.0
2014-Oct-16 15:33N 48°41' W 123°24'0 0.0
2014-Oct-16 14:33N 48°41' W 123°24'0 0.0
2014-Oct-16 13:32N 48°41' W 123°24'0 0.0
2014-Oct-16 12:33N 48°41' W 123°24'3 3.4
2014-Oct-16 11:33N 48°44' W 123°21'1313.5
2014-Oct-16 10:34N 48°57' W 123°19'1111.3
2014-Oct-16 09:34N 49°07' W 123°12'6 6.3
2014-Oct-16 08:33N 49°09' W 123°02'0 0.0
2014-Oct-16 07:33N 49°09' W 123°02'6 6.3
2014-Oct-16 06:33N 49°07' W 123°12'1212.3
2014-Oct-16 05:33N 49°09' W 123°30'1413.6
2014-Oct-16 04:33N 49°13' W 123°50'4 2.2
2014-Oct-16 02:33N 49°10' W 123°55'1111.3
2014-Oct-16 01:34N 49°11' W 123°38'1413.6
2014-Oct-16 00:34N 49°06' W 123°19'1111.2
2014-Oct-15 23:33N 49°09' W 123°02'0 0.2
2014-Oct-15 22:33N 49°09' W 123°02'4 3.8
2014-Oct-15 21:33N 49°07' W 123°07'9 9.5
2014-Oct-15 20:34N 49°02' W 123°20'1211.8
2014-Oct-15 19:33N 48°50' W 123°21'9 9.5
2014-Oct-15 18:33N 48°41' W 123°24'0 0.0
2014-Oct-15 17:33N 48°41' W 123°24'0 0.0
2014-Oct-15 16:34N 48°41' W 123°24'0 0.0
2014-Oct-15 15:34N 48°41' W 123°24'0 0.0
2014-Oct-15 14:33N 48°41' W 123°24'0 0.0
2014-Oct-15 13:33N 48°41' W 123°24'0 0.0
2014-Oct-15 12:32N 48°41' W 123°24'2 2.5
2014-Oct-15 11:34N 48°43' W 123°21'1413.6
2014-Oct-15 10:33N 48°56' W 123°19'1212.1
2014-Oct-15 09:33N 49°07' W 123°12'7 6.6
2014-Oct-15 08:33N 49°09' W 123°02'0 0.0
2014-Oct-15 07:33N 49°09' W 123°02'7 6.6
2014-Oct-15 06:34N 49°07' W 123°12'1313.3
2014-Oct-15 05:34N 49°09' W 123°32'1414.2
2014-Oct-15 04:33N 49°11' W 123°54'1 1.4
2014-Oct-15 03:33N 49°10' W 123°56'0 0.1
2014-Oct-15 02:33N 49°10' W 123°56'1010.3
2014-Oct-15 01:33N 49°12' W 123°40'1414.0
2014-Oct-15 00:33N 49°06' W 123°21'1212.0
2014-Oct-14 23:33N 49°09' W 123°02'0 0.2
2014-Oct-14 22:33N 49°09' W 123°02'0 0.1
2014-Oct-14 21:33N 49°09' W 123°02'0 0.0
2014-Oct-14 20:33N 49°09' W 123°02'0 0.0
2014-Oct-14 19:33N 49°09' W 123°02'0 0.0
2014-Oct-14 18:33N 49°09' W 123°02'0 0.0
2014-Oct-14 17:33N 49°09' W 123°02'0 0.0
2014-Oct-14 16:33N 49°09' W 123°02'0 0.0
2014-Oct-14 15:33N 49°09' W 123°02'0 0.0
2014-Oct-14 14:33N 49°09' W 123°02'0 0.0
2014-Oct-14 13:33N 49°09' W 123°02'0 0.0
2014-Oct-14 12:33N 49°09' W 123°02'0 0.0
2014-Oct-14 11:33N 49°09' W 123°02'0 0.0
2014-Oct-14 10:33N 49°09' W 123°02'0 0.0
2014-Oct-14 09:33N 49°09' W 123°02'0 0.0
2014-Oct-14 08:33N 49°09' W 123°02'0 0.0
2014-Oct-14 07:33N 49°09' W 123°02'0 0.0
2014-Oct-14 06:33N 49°09' W 123°02'0 0.0
2014-Oct-14 05:33N 49°09' W 123°02'0 0.0
2014-Oct-14 04:33N 49°09' W 123°02'0 0.0
2014-Oct-14 03:33N 49°09' W 123°02'0 0.0
2014-Oct-14 02:33N 49°09' W 123°02'0 0.0
2014-Oct-14 01:33N 49°09' W 123°02'0 0.0
2014-Oct-14 00:33N 49°09' W 123°02'0 0.0
2014-Oct-13 23:33N 49°09' W 123°02'0 0.0
2014-Oct-13 22:33N 49°09' W 123°02'0 0.0
2014-Oct-13 21:33N 49°09' W 123°02'0 0.0
2014-Oct-13 20:33N 49°09' W 123°02'0 0.0
2014-Oct-13 19:33N 49°09' W 123°02'0 0.0
2014-Oct-13 18:33N 49°09' W 123°02'0 0.0
2014-Oct-13 17:33N 49°09' W 123°02'0 0.0
2014-Oct-13 16:33N 49°09' W 123°02'0 0.0
2014-Oct-13 15:33N 49°09' W 123°02'0 0.0
2014-Oct-13 14:33N 49°09' W 123°02'0 0.0
2014-Oct-13 13:33N 49°09' W 123°02'0 0.0
2014-Oct-13 12:33N 49°09' W 123°02'  

Dump ship's entire track history